Time;durP1;ratioP1;P1;durP2;ratioP2;P2;SDS_P1;SDS_P2;PMS_P1;PMS_P2;Temp;Humidity;BMP_temperature;BMP_pressure;BME280_temperature;BME280_humidity;BME280_pressure;Samples;Min_cycle;Max_cycle;Signal;HPM_P1;HPM_P2
2021/12/20 00:01:25;;;;;;;15.57;4.83;;;6.20;99.90;;;;;;5134664;27;20245;-54
2021/12/20 00:03:53;;;;;;;18.20;4.87;;;6.20;99.90;;;;;;5116639;27;20307;-55
2021/12/20 00:06:23;;;;;;;12.40;4.40;;;6.10;99.90;;;;;;5115299;27;20210;-54
2021/12/20 00:08:51;;;;;;;15.83;4.73;;;6.00;99.90;;;;;;5114193;28;20303;-55
2021/12/20 00:11:20;;;;;;;16.23;4.83;;;5.90;99.90;;;;;;5121300;27;20226;-55
2021/12/20 00:13:48;;;;;;;15.23;4.77;;;5.80;99.90;;;;;;5134311;27;20773;-54
2021/12/20 00:16:16;;;;;;;20.70;5.07;;;5.70;99.90;;;;;;5134851;27;20242;-55
2021/12/20 00:18:44;;;;;;;17.33;4.87;;;5.70;99.90;;;;;;5125177;27;20256;-53
2021/12/20 00:21:12;;;;;;;18.70;5.40;;;5.60;99.90;;;;;;5133886;27;20772;-54
2021/12/20 00:23:42;;;;;;;23.30;5.40;;;5.60;99.90;;;;;;5133586;27;20262;-55
2021/12/20 00:26:10;;;;;;;19.67;4.83;;;5.60;99.90;;;;;;5133569;27;20285;-54
2021/12/20 00:28:38;;;;;;;20.07;5.20;;;5.60;99.90;;;;;;5147272;27;20228;-54
2021/12/20 00:31:06;;;;;;;21.23;5.67;;;5.60;99.90;;;;;;5155026;27;20249;-54
2021/12/20 00:33:35;;;;;;;19.33;5.00;;;5.50;99.90;;;;;;5155164;27;20257;-54
2021/12/20 00:36:04;;;;;;;21.87;5.00;;;5.50;99.90;;;;;;5155005;27;20238;-54
2021/12/20 00:41:19;;;;;;;20.47;5.50;;;5.40;99.90;;;;;;5133744;27;20657;-54
2021/12/20 00:43:47;;;;;;;17.17;5.57;;;5.40;99.90;;;;;;5133986;27;20319;-53
2021/12/20 00:46:15;;;;;;;19.90;5.10;;;5.40;99.90;;;;;;5133795;27;20260;-54
2021/12/20 00:48:43;;;;;;;16.37;5.07;;;5.40;99.90;;;;;;5134108;27;20247;-54
2021/12/20 00:51:11;;;;;;;16.73;5.53;;;5.30;99.90;;;;;;5133814;27;20249;-55
2021/12/20 00:53:40;;;;;;;23.87;6.37;;;5.40;99.90;;;;;;5147065;27;20251;-53
2021/12/20 00:56:08;;;;;;;20.17;5.50;;;5.40;99.90;;;;;;5154469;27;20306;-54
2021/12/20 00:58:37;;;;;;;21.67;6.30;;;5.30;99.90;;;;;;5152917;27;20686;-54
2021/12/20 01:01:06;;;;;;;18.73;5.40;;;5.30;99.90;;;;;;5113301;28;20247;-53
2021/12/20 01:03:34;;;;;;;25.43;5.70;;;5.20;99.90;;;;;;5126912;27;20265;-54
2021/12/20 01:06:03;;;;;;;22.50;5.73;;;5.20;99.90;;;;;;5133688;27;20203;-54
2021/12/20 01:08:35;;;;;;;22.17;5.97;;;5.10;99.90;;;;;;5132740;27;20679;-54
2021/12/20 01:11:04;;;;;;;20.97;6.67;;;5.10;99.90;;;;;;5130437;27;20194;-53
2021/12/20 01:13:39;;;;;;;23.63;6.30;;;5.00;99.90;;;;;;5149255;27;20301;-54
2021/12/20 01:16:12;;;;;;;22.23;6.60;;;5.00;99.90;;;;;;5154405;27;20230;-55
2021/12/20 01:18:40;;;;;;;23.07;5.80;;;4.90;99.90;;;;;;5144473;27;20206;-52
2021/12/20 01:21:08;;;;;;;31.37;14.53;;;4.90;99.90;;;;;;5133392;27;20266;-54
2021/12/20 01:23:38;;;;;;;24.53;7.60;;;4.90;99.90;;;;;;5133191;27;20306;-53
2021/12/20 01:26:06;;;;;;;17.67;6.10;;;4.90;99.90;;;;;;5132456;27;20233;-54
2021/12/20 01:28:34;;;;;;;16.03;5.83;;;4.90;99.90;;;;;;5133048;27;20730;-54
2021/12/20 01:31:02;;;;;;;20.40;6.83;;;4.80;99.90;;;;;;5133482;27;20312;-55
2021/12/20 01:33:32;;;;;;;19.63;6.50;;;4.80;99.90;;;;;;5133128;27;20259;-54
2021/12/20 01:36:00;;;;;;;16.90;6.07;;;4.90;99.90;;;;;;5133087;27;20301;-54
2021/12/20 01:38:28;;;;;;;23.37;6.77;;;4.90;99.90;;;;;;5134183;27;20236;-55
2021/12/20 01:40:56;;;;;;;20.50;6.37;;;5.00;99.90;;;;;;5133188;27;20348;-54
2021/12/20 01:43:24;;;;;;;19.77;5.97;;;5.00;99.90;;;;;;5132719;27;20325;-54
2021/12/20 01:45:52;;;;;;;22.77;6.70;;;5.00;99.90;;;;;;5132719;27;20750;-54
2021/12/20 01:48:21;;;;;;;21.20;6.20;;;5.00;99.90;;;;;;5132570;27;20658;-55
2021/12/20 01:51:17;;;;;;;19.93;5.67;;;4.90;99.90;;;;;;5132667;27;20755;-53
2021/12/20 01:53:45;;;;;;;18.43;5.07;;;4.90;99.90;;;;;;5132682;27;20264;-53
2021/12/20 01:56:13;;;;;;;24.60;6.37;;;4.90;99.90;;;;;;5133050;27;20240;-54
2021/12/20 01:58:41;;;;;;;26.33;6.17;;;4.90;99.90;;;;;;5131315;27;20639;-53
2021/12/20 02:01:20;;;;;;;24.03;5.70;;;4.80;99.90;;;;;;5132433;27;20278;-54
2021/12/20 02:03:55;;;;;;;25.10;5.93;;;4.80;99.90;;;;;;5132359;27;20628;-56
2021/12/20 02:06:30;;;;;;;22.23;4.93;;;4.80;99.90;;;;;;5132719;27;20209;-54
2021/12/20 02:09:01;;;;;;;20.80;6.00;;;4.70;99.90;;;;;;5132961;27;20199;-55
2021/12/20 02:11:30;;;;;;;23.43;5.57;;;4.60;99.90;;;;;;5132581;27;20193;-54
2021/12/20 02:13:58;;;;;;;23.30;5.40;;;4.60;99.90;;;;;;5132454;27;20250;-54
2021/12/20 02:16:26;;;;;;;18.50;4.67;;;4.60;99.90;;;;;;5132174;27;20301;-53
2021/12/20 02:18:54;;;;;;;22.00;4.67;;;4.50;99.90;;;;;;5128326;27;20616;-54
2021/12/20 02:21:24;;;;;;;20.23;4.70;;;4.50;99.90;;;;;;5111603;28;20641;-55
2021/12/20 02:23:52;;;;;;;26.37;4.77;;;4.50;99.90;;;;;;5113409;27;20230;-54
2021/12/20 02:26:22;;;;;;;20.50;5.03;;;4.50;99.90;;;;;;5132365;27;20207;-55
2021/12/20 02:28:52;;;;;;;22.70;4.87;;;4.40;99.90;;;;;;5132020;27;20691;-54
2021/12/20 02:39:40;;;;;;;22.30;5.57;;;4.30;99.90;;;;;;5129332;28;20233;-54
2021/12/20 02:42:12;;;;;;;22.53;4.90;;;4.20;99.90;;;;;;5132324;28;20221;-55
2021/12/20 02:44:46;;;;;;;16.73;4.50;;;4.20;99.90;;;;;;5131853;28;20766;-55
2021/12/20 02:47:26;;;;;;;15.13;4.93;;;4.20;99.90;;;;;;5132081;28;20675;-54
2021/12/20 02:49:54;;;;;;;15.80;4.73;;;4.10;99.90;;;;;;5132222;28;20194;-54
2021/12/20 02:52:24;;;;;;;24.67;4.90;;;4.10;99.90;;;;;;5131645;28;20219;-53
2021/12/20 02:54:53;;;;;;;17.10;4.90;;;4.10;99.90;;;;;;5132290;28;20241;-53
2021/12/20 02:57:21;;;;;;;20.27;4.67;;;4.00;99.90;;;;;;5112347;27;20718;-53
2021/12/20 02:59:49;;;;;;;14.77;3.77;;;4.00;99.90;;;;;;5111192;28;20290;-54
2021/12/20 03:02:18;;;;;;;16.33;4.03;;;3.90;99.90;;;;;;5111484;28;20754;-53
2021/12/20 03:04:46;;;;;;;14.00;3.80;;;3.90;99.90;;;;;;5111352;28;20752;-53
2021/12/20 03:07:21;;;;;;;24.53;4.30;;;3.90;99.90;;;;;;5111676;28;20248;-54
2021/12/20 03:09:55;;;;;;;17.27;4.43;;;3.80;99.90;;;;;;5111491;28;20243;-53
2021/12/20 03:12:25;;;;;;;24.30;4.50;;;3.80;99.90;;;;;;5131392;28;20237;-54
2021/12/20 03:14:57;;;;;;;18.10;4.47;;;3.80;99.90;;;;;;5132082;28;20230;-53
2021/12/20 03:17:25;;;;;;;17.10;4.50;;;3.70;99.90;;;;;;5131955;28;20651;-53
2021/12/20 03:19:53;;;;;;;27.33;4.77;;;3.70;99.90;;;;;;5121973;28;20331;-53
2021/12/20 03:22:21;;;;;;;16.90;4.73;;;3.70;99.90;;;;;;5111680;28;20269;-53
2021/12/20 03:24:51;;;;;;;16.57;4.77;;;3.70;99.90;;;;;;5121157;28;20239;-55
2021/12/20 03:27:19;;;;;;;20.23;4.47;;;3.60;99.90;;;;;;5131962;28;20627;-54
2021/12/20 03:29:47;;;;;;;23.03;5.10;;;3.60;99.90;;;;;;5131901;27;20239;-54
2021/12/20 03:32:15;;;;;;;20.33;4.53;;;3.60;99.90;;;;;;5135250;27;20245;-54
2021/12/20 03:34:43;;;;;;;25.13;5.67;;;3.50;99.90;;;;;;5135373;27;20323;-53
2021/12/20 03:37:11;;;;;;;23.17;5.07;;;3.50;99.90;;;;;;5135228;27;20230;-54
2021/12/20 03:39:39;;;;;;;19.73;5.63;;;3.50;99.90;;;;;;5129245;27;20672;-54
2021/12/20 03:42:09;;;;;;;20.53;5.17;;;3.50;99.90;;;;;;5114745;28;20254;-56
2021/12/20 03:44:43;;;;;;;18.60;5.17;;;3.50;99.90;;;;;;5124431;27;20310;-55
2021/12/20 03:47:12;;;;;;;21.37;5.53;;;3.50;99.90;;;;;;5135214;27;20206;-53
2021/12/20 03:49:41;;;;;;;19.57;5.00;;;3.50;99.90;;;;;;5135519;27;20635;-53
2021/12/20 03:52:09;;;;;;;22.40;6.10;;;3.40;99.90;;;;;;5134222;27;20237;-54
2021/12/20 03:54:38;;;;;;;21.93;6.00;;;3.40;99.90;;;;;;5134764;27;20754;-53
2021/12/20 03:57:08;;;;;;;27.17;6.10;;;3.40;99.90;;;;;;5135239;27;20238;-53
2021/12/20 03:59:36;;;;;;;28.17;6.33;;;3.40;99.90;;;;;;5119026;27;20303;-53
2021/12/20 04:02:06;;;;;;;23.30;5.63;;;3.40;99.90;;;;;;5114553;28;20318;-53
2021/12/20 04:04:34;;;;;;;21.03;5.73;;;3.50;99.90;;;;;;5114497;28;20263;-54
2021/12/20 04:07:03;;;;;;;26.43;6.23;;;3.50;99.90;;;;;;5120608;27;20724;-53
2021/12/20 04:09:31;;;;;;;24.43;5.13;;;3.60;99.90;;;;;;5134683;27;20298;-53
2021/12/20 04:11:59;;;;;;;22.27;6.17;;;3.70;99.90;;;;;;5134777;27;20210;-54
2021/12/20 04:14:28;;;;;;;16.13;5.13;;;3.70;99.90;;;;;;5134645;27;20251;-53
2021/12/20 04:16:56;;;;;;;29.03;6.10;;;3.80;99.90;;;;;;5134649;27;20282;-54
2021/12/20 04:19:24;;;;;;;32.73;7.00;;;3.80;99.90;;;;;;5119572;27;20234;-56
2021/12/20 04:21:52;;;;;;;24.20;5.97;;;3.80;99.90;;;;;;5114151;28;20254;-55
2021/12/20 04:24:20;;;;;;;24.33;6.63;;;3.80;99.90;;;;;;5119621;27;20246;-55
2021/12/20 04:26:48;;;;;;;26.83;6.80;;;3.80;99.90;;;;;;5136372;27;20223;-54
2021/12/20 04:29:18;;;;;;;30.77;6.67;;;3.80;99.90;;;;;;5155435;27;20249;-53
2021/12/20 04:31:47;;;;;;;24.27;5.83;;;3.90;99.90;;;;;;5155266;27;20268;-53
2021/12/20 04:34:16;;;;;;;20.57;6.23;;;3.80;99.90;;;;;;5155122;27;20309;-54
2021/12/20 04:36:44;;;;;;;25.13;6.23;;;3.90;99.90;;;;;;5150440;27;20634;-53
2021/12/20 04:39:16;;;;;;;23.33;6.10;;;3.90;99.90;;;;;;5134156;27;20254;-53
2021/12/20 04:41:44;;;;;;;26.20;6.93;;;3.90;99.90;;;;;;5113524;28;20242;-53
2021/12/20 04:44:12;;;;;;;32.00;6.47;;;3.90;99.90;;;;;;5118948;27;20249;-54
2021/12/20 04:46:40;;;;;;;26.13;6.20;;;3.90;99.90;;;;;;5134162;27;20645;-54
2021/12/20 04:49:09;;;;;;;26.50;9.90;;;3.90;99.90;;;;;;5120255;27;20215;-54
2021/12/20 04:51:37;;;;;;;23.87;6.97;;;3.90;99.90;;;;;;5113027;28;20290;-54
2021/12/20 04:54:05;;;;;;;21.90;6.93;;;3.90;99.90;;;;;;5131736;27;20239;-55
2021/12/20 04:56:33;;;;;;;24.97;5.67;;;3.90;99.90;;;;;;5133639;27;20248;-54
2021/12/20 04:59:02;;;;;;;28.83;6.43;;;3.90;99.90;;;;;;5129489;27;20280;-53
2021/12/20 05:01:31;;;;;;;18.30;7.73;;;3.90;99.90;;;;;;5104921;28;20210;-54
2021/12/20 05:03:59;;;;;;;23.60;5.90;;;3.90;99.90;;;;;;5125217;27;20277;-54
2021/12/20 05:06:31;;;;;;;17.07;6.00;;;3.90;99.90;;;;;;5133685;27;20228;-56
2021/12/20 05:09:00;;;;;;;19.53;5.67;;;3.90;99.90;;;;;;5134113;27;20211;-52
2021/12/20 05:11:30;;;;;;;19.63;5.90;;;3.90;99.90;;;;;;5115096;27;20651;-53
2021/12/20 05:13:58;;;;;;;28.10;6.90;;;4.00;99.90;;;;;;5112882;28;20319;-53
2021/12/20 05:16:26;;;;;;;25.33;6.70;;;4.00;99.90;;;;;;5112643;28;20639;-54
2021/12/20 05:18:54;;;;;;;16.23;5.57;;;3.90;99.90;;;;;;5118268;27;20210;-53
2021/12/20 05:21:22;;;;;;;17.97;5.53;;;4.00;99.90;;;;;;5133405;27;20242;-54
2021/12/20 05:23:52;;;;;;;27.87;6.07;;;4.00;99.90;;;;;;5132854;27;20750;-54
2021/12/20 05:26:20;;;;;;;23.03;6.67;;;4.00;99.90;;;;;;5133431;27;20250;-54
2021/12/20 05:28:49;;;;;;;20.70;5.63;;;3.90;99.90;;;;;;5132873;27;20237;-54
2021/12/20 05:31:17;;;;;;;17.73;5.93;;;3.90;99.90;;;;;;5122166;27;20203;-53
2021/12/20 05:33:45;;;;;;;21.10;6.37;;;3.90;99.90;;;;;;5114758;27;20667;-56
2021/12/20 05:36:13;;;;;;;26.47;5.87;;;3.80;99.90;;;;;;5114082;27;20228;-55
2021/12/20 05:38:48;;;;;;;23.13;5.93;;;3.80;99.90;;;;;;5115551;27;20206;-54
2021/12/20 05:41:18;;;;;;;25.37;6.27;;;3.80;99.90;;;;;;5127505;27;20716;-54
2021/12/20 05:43:46;;;;;;;21.33;6.23;;;3.80;99.90;;;;;;5114137;27;20258;-53
2021/12/20 05:46:14;;;;;;;20.07;6.47;;;3.80;99.90;;;;;;5123056;27;20677;-53
2021/12/20 05:48:42;;;;;;;47.67;16.17;;;3.70;99.90;;;;;;5126196;27;20286;-53
2021/12/20 05:51:12;;;;;;;26.90;8.17;;;3.60;99.90;;;;;;5111506;27;20229;-55
2021/12/20 05:53:40;;;;;;;23.90;6.27;;;3.50;99.90;;;;;;5125856;27;20272;-54
2021/12/20 05:56:08;;;;;;;23.37;6.10;;;3.40;99.90;;;;;;5130026;27;20241;-54
2021/12/20 05:58:37;;;;;;;20.47;5.40;;;3.30;99.90;;;;;;5117680;27;20647;-54
2021/12/20 06:01:05;;;;;;;18.87;6.13;;;3.30;99.90;;;;;;5132053;27;20285;-54
2021/12/20 06:03:34;;;;;;;19.53;6.30;;;3.20;99.90;;;;;;5125745;27;20782;-55
2021/12/20 06:06:02;;;;;;;21.93;5.80;;;3.10;99.90;;;;;;5107811;28;20210;-53
2021/12/20 06:08:30;;;;;;;27.53;6.10;;;3.10;99.90;;;;;;5122250;27;20253;-53
2021/12/20 06:10:58;;;;;;;22.67;6.07;;;3.00;99.90;;;;;;5132068;27;20234;-54
2021/12/20 06:13:30;;;;;;;21.27;6.10;;;3.00;99.90;;;;;;5122884;27;20703;-52
2021/12/20 06:15:59;;;;;;;26.23;6.47;;;3.00;99.90;;;;;;5109821;27;20612;-53
2021/12/20 06:18:27;;;;;;;25.87;7.93;;;2.90;99.90;;;;;;5112647;27;20318;-55
2021/12/20 06:20:55;;;;;;;19.83;11.03;;;2.80;99.90;;;;;;5115179;27;20231;-53
2021/12/20 06:23:23;;;;;;;24.90;10.03;;;2.70;99.90;;;;;;5110597;27;20323;-55
2021/12/20 06:25:51;;;;;;;25.97;11.87;;;2.60;99.90;;;;;;5112097;27;20290;-53
2021/12/20 06:28:19;;;;;;;22.60;7.40;;;2.60;99.90;;;;;;5113446;28;20291;-54
2021/12/20 06:30:48;;;;;;;603.10;187.53;;;2.50;99.90;;;;;;5110411;28;20286;-55
2021/12/20 06:33:17;;;;;;;153.07;47.80;;;2.50;99.90;;;;;;5115458;28;20332;-53
2021/12/20 06:35:46;;;;;;;56.03;18.03;;;2.50;99.90;;;;;;5111245;28;20207;-53
2021/12/20 06:38:19;;;;;;;30.37;9.73;;;2.50;99.90;;;;;;5126948;28;20236;-55
2021/12/20 06:40:48;;;;;;;23.47;6.40;;;2.40;99.90;;;;;;5126108;28;20235;-54
2021/12/20 06:43:16;;;;;;;20.87;6.27;;;2.30;99.90;;;;;;5130707;28;20265;-54
2021/12/20 06:45:45;;;;;;;18.83;5.63;;;2.30;99.90;;;;;;5118270;28;20851;-52
2021/12/20 06:48:13;;;;;;;21.87;6.80;;;2.20;99.90;;;;;;5131437;28;20238;-54
2021/12/20 06:50:43;;;;;;;16.63;6.80;;;2.10;99.90;;;;;;5121260;28;20238;-55
2021/12/20 06:53:11;;;;;;;26.40;7.90;;;2.00;99.90;;;;;;5119185;28;20246;-55
2021/12/20 06:55:39;;;;;;;22.77;6.20;;;2.00;99.90;;;;;;5122269;28;20763;-54
2021/12/20 06:58:07;;;;;;;23.67;6.70;;;2.00;99.90;;;;;;5121424;28;20228;-54
2021/12/20 07:00:35;;;;;;;23.07;6.30;;;1.90;99.90;;;;;;5120508;28;20278;-53
2021/12/20 07:03:03;;;;;;;19.43;5.70;;;1.90;99.90;;;;;;5118695;28;20244;-54
2021/12/20 07:05:32;;;;;;;30.27;6.00;;;1.80;99.90;;;;;;5105987;28;20207;-53
2021/12/20 07:08:02;;;;;;;18.70;5.93;;;1.80;99.90;;;;;;5114560;28;20211;-54
2021/12/20 07:10:30;;;;;;;18.27;5.40;;;1.80;99.90;;;;;;5114719;27;20199;-54
2021/12/20 07:12:58;;;;;;;16.30;5.63;;;1.70;99.90;;;;;;5130038;27;20251;-54
2021/12/20 07:15:27;;;;;;;17.23;4.93;;;1.70;99.90;;;;;;5124461;27;20285;-54
2021/12/20 07:17:55;;;;;;;22.83;5.50;;;1.70;99.90;;;;;;5135238;27;20237;-54
2021/12/20 07:20:23;;;;;;;21.00;5.60;;;1.60;99.90;;;;;;5135424;27;20206;-54
2021/12/20 07:22:51;;;;;;;13.53;5.77;;;1.60;99.90;;;;;;5135093;27;20664;-54
2021/12/20 07:25:21;;;;;;;14.67;5.00;;;1.60;99.90;;;;;;5132614;27;20256;-55
2021/12/20 07:27:50;;;;;;;20.90;5.57;;;1.60;99.90;;;;;;5137725;27;20229;-54
2021/12/20 07:30:19;;;;;;;26.47;5.40;;;1.50;99.90;;;;;;5115035;28;20231;-54
2021/12/20 07:32:48;;;;;;;17.87;5.20;;;1.60;99.90;;;;;;5114943;28;20654;-54
2021/12/20 07:35:16;;;;;;;16.40;5.17;;;1.50;99.90;;;;;;5114532;28;20226;-54
2021/12/20 07:37:44;;;;;;;20.53;5.83;;;1.50;99.90;;;;;;5114658;28;20237;-55
2021/12/20 07:40:13;;;;;;;22.93;5.20;;;1.40;99.90;;;;;;5114799;28;20203;-54
2021/12/20 07:42:43;;;;;;;20.63;6.10;;;1.50;99.90;;;;;;5122361;27;20730;-53
2021/12/20 07:45:11;;;;;;;27.30;5.63;;;1.40;99.90;;;;;;5115782;27;20317;-53
2021/12/20 07:47:48;;;;;;;18.43;5.07;;;1.40;99.90;;;;;;5115084;28;20269;-55
2021/12/20 07:50:17;;;;;;;17.67;5.83;;;1.40;99.90;;;;;;5115125;28;20649;-55
2021/12/20 07:52:46;;;;;;;19.93;5.37;;;1.40;99.90;;;;;;5133584;27;20253;-55
2021/12/20 07:55:15;;;;;;;22.17;6.63;;;1.40;99.90;;;;;;5156064;27;20200;-53
2021/12/20 07:57:44;;;;;;;23.23;7.27;;;1.40;99.90;;;;;;5140738;27;20258;-54
2021/12/20 08:00:14;;;;;;;19.20;6.53;;;1.40;99.90;;;;;;5135143;27;20396;-54
2021/12/20 08:02:42;;;;;;;18.43;5.90;;;1.40;99.90;;;;;;5134858;27;20233;-53
2021/12/20 08:05:12;;;;;;;16.67;6.10;;;1.30;99.90;;;;;;5134849;27;20842;-54
2021/12/20 08:07:40;;;;;;;18.17;5.33;;;1.30;99.90;;;;;;5134973;27;20243;-52
2021/12/20 08:10:10;;;;;;;21.00;5.40;;;1.30;99.90;;;;;;5134820;27;20254;-54
2021/12/20 08:12:38;;;;;;;21.30;5.60;;;1.30;99.90;;;;;;5134856;27;20621;-54
2021/12/20 08:15:09;;;;;;;17.87;5.20;;;1.30;99.90;;;;;;5134820;27;20632;-54
2021/12/20 08:17:37;;;;;;;23.20;5.50;;;1.30;99.90;;;;;;5133627;27;20292;-54
2021/12/20 08:20:05;;;;;;;24.03;6.73;;;1.30;99.90;;;;;;5125870;27;20255;-54
2021/12/20 08:22:34;;;;;;;32.13;7.07;;;1.30;99.90;;;;;;5124647;27;20205;-54
2021/12/20 08:25:02;;;;;;;27.40;7.20;;;1.30;99.90;;;;;;5122685;27;20316;-54
2021/12/20 08:27:30;;;;;;;20.87;6.07;;;1.40;99.90;;;;;;5128086;27;20296;-54
2021/12/20 08:29:58;;;;;;;26.07;6.30;;;1.40;99.90;;;;;;5134372;27;20226;-54
2021/12/20 08:32:28;;;;;;;17.40;5.70;;;1.40;99.90;;;;;;5128121;27;20229;-54
2021/12/20 08:34:56;;;;;;;23.83;6.23;;;1.50;99.90;;;;;;5124721;27;20206;-55
2021/12/20 08:37:24;;;;;;;20.93;5.93;;;1.50;99.90;;;;;;5124968;27;20294;-56
2021/12/20 08:39:53;;;;;;;19.60;6.30;;;1.60;99.90;;;;;;5125282;27;20297;-55
2021/12/20 08:42:21;;;;;;;19.97;6.60;;;1.60;99.90;;;;;;5132669;27;20253;-56
2021/12/20 08:44:50;;;;;;;24.40;7.23;;;1.70;99.90;;;;;;5133664;27;20229;-55
2021/12/20 08:47:19;;;;;;;22.27;7.07;;;1.80;99.90;;;;;;5133834;27;20231;-55
2021/12/20 08:49:48;;;;;;;21.80;7.17;;;1.80;99.90;;;;;;5120247;27;20634;-55
2021/12/20 08:52:17;;;;;;;26.73;7.20;;;1.80;99.90;;;;;;5131674;27;20739;-55
2021/12/20 08:54:45;;;;;;;26.73;7.93;;;1.90;99.90;;;;;;5124427;27;20657;-54
2021/12/20 08:57:13;;;;;;;21.10;7.27;;;1.90;99.90;;;;;;5131177;27;20243;-54
2021/12/20 08:59:41;;;;;;;27.33;8.73;;;2.00;99.90;;;;;;5131121;27;20236;-54
2021/12/20 09:02:09;;;;;;;22.13;9.03;;;2.00;99.90;;;;;;5133092;27;20630;-53
2021/12/20 09:04:37;;;;;;;27.03;9.13;;;2.00;99.90;;;;;;5131698;27;20732;-53
2021/12/20 09:07:14;;;;;;;26.67;8.63;;;2.10;99.90;;;;;;5130804;27;20548;-54
2021/12/20 09:09:44;;;;;;;26.40;8.60;;;2.10;99.90;;;;;;5130300;27;20312;-54
2021/12/20 09:12:12;;;;;;;33.20;9.20;;;2.10;99.90;;;;;;5132552;27;20338;-55
2021/12/20 09:14:40;;;;;;;25.87;9.30;;;2.20;99.90;;;;;;5130681;27;20254;-54
2021/12/20 09:17:08;;;;;;;23.63;7.97;;;2.20;99.90;;;;;;5129335;27;20198;-53
2021/12/20 09:19:36;;;;;;;23.40;7.30;;;2.30;99.90;;;;;;5130920;27;20261;-53
2021/12/20 09:22:10;;;;;;;25.40;7.97;;;2.30;99.90;;;;;;5132641;27;20294;-52
2021/12/20 09:24:39;;;;;;;22.60;7.93;;;2.40;99.90;;;;;;5132187;27;20349;-54
2021/12/20 09:27:08;;;;;;;23.00;7.43;;;2.40;99.90;;;;;;5132338;27;20293;-55
2021/12/20 09:29:37;;;;;;;20.20;7.07;;;2.40;99.90;;;;;;5130995;27;20273;-54
2021/12/20 09:32:06;;;;;;;20.20;7.97;;;2.50;99.90;;;;;;5131799;27;20293;-53
2021/12/20 09:34:34;;;;;;;25.57;7.97;;;2.50;99.90;;;;;;5131808;27;20225;-55
2021/12/20 09:37:06;;;;;;;19.13;7.33;;;2.50;99.90;;;;;;5131244;27;20245;-53
2021/12/20 09:39:39;;;;;;;23.37;7.00;;;2.60;99.90;;;;;;5131837;27;20244;-55
2021/12/20 09:42:10;;;;;;;25.73;7.43;;;2.60;99.90;;;;;;5130319;27;20219;-54
2021/12/20 09:44:38;;;;;;;27.63;8.90;;;2.60;99.90;;;;;;5131849;27;20294;-55
2021/12/20 09:47:06;;;;;;;23.37;8.17;;;2.70;99.90;;;;;;5132641;27;20237;-54
2021/12/20 09:49:34;;;;;;;19.80;6.83;;;2.70;99.90;;;;;;5132182;27;20267;-56
2021/12/20 09:52:03;;;;;;;20.93;7.27;;;2.70;99.90;;;;;;5129470;27;20253;-55
2021/12/20 09:54:31;;;;;;;20.30;7.33;;;2.80;99.90;;;;;;5130615;27;20230;-54
2021/12/20 09:57:06;;;;;;;19.70;6.40;;;2.80;99.90;;;;;;5132086;27;20210;-53
2021/12/20 09:59:38;;;;;;;22.27;8.50;;;2.80;99.90;;;;;;5132329;27;20244;-54
2021/12/20 10:02:08;;;;;;;22.27;8.00;;;2.90;99.90;;;;;;5129517;27;20242;-55
2021/12/20 10:04:36;;;;;;;25.27;11.47;;;2.90;99.90;;;;;;5127281;27;20707;-54
2021/12/20 10:07:05;;;;;;;22.47;10.23;;;2.90;99.90;;;;;;5131750;27;20853;-55
2021/12/20 10:09:34;;;;;;;24.93;9.80;;;2.90;99.90;;;;;;5112939;27;20245;-55
2021/12/20 10:12:24;;;;;;;20.90;8.53;;;2.90;99.90;;;;;;5110496;28;20209;-55
2021/12/20 10:14:54;;;;;;;25.90;8.13;;;2.90;99.90;;;;;;5110261;28;20253;-55
2021/12/20 10:17:25;;;;;;;23.10;8.90;;;3.00;99.90;;;;;;5115676;27;20283;-54
2021/12/20 10:19:53;;;;;;;26.47;8.43;;;3.00;99.90;;;;;;5131144;27;20640;-55
2021/12/20 10:22:28;;;;;;;19.57;7.87;;;3.10;99.90;;;;;;5125614;27;20247;-54
2021/12/20 10:24:57;;;;;;;23.87;8.23;;;3.00;99.90;;;;;;5122031;27;20285;-56
2021/12/20 10:27:32;;;;;;;25.27;8.77;;;3.10;99.90;;;;;;5132073;27;20241;-56
2021/12/20 10:30:00;;;;;;;23.03;7.60;;;3.10;99.90;;;;;;5132279;27;20686;-55
2021/12/20 10:32:38;;;;;;;21.63;7.37;;;3.10;99.90;;;;;;5131732;27;20249;-55
2021/12/20 10:35:32;;;;;;;22.63;7.73;;;3.20;99.90;;;;;;5132264;28;20202;-54
2021/12/20 10:38:03;;;;;;;25.33;7.47;;;3.20;99.90;;;;;;5131592;28;20231;-55
2021/12/20 10:40:31;;;;;;;19.67;6.47;;;3.20;99.90;;;;;;5132833;27;20290;-55
2021/12/20 10:43:06;;;;;;;13.07;5.37;;;3.30;99.90;;;;;;5136033;27;20351;-55
2021/12/20 10:45:34;;;;;;;17.07;5.27;;;3.30;99.90;;;;;;5136279;27;20223;-55
2021/12/20 10:48:12;;;;;;;9.83;3.33;;;3.30;99.90;;;;;;5135514;27;20207;-56
2021/12/20 10:50:43;;;;;;;11.03;3.73;;;3.30;99.90;;;;;;5127494;27;20246;-54
2021/12/20 10:53:15;;;;;;;4.97;2.03;;;3.40;99.90;;;;;;5116227;27;20738;-55
2021/12/20 10:55:45;;;;;;;3.83;1.70;;;3.50;99.90;;;;;;5128203;27;20254;-54
2021/12/20 10:58:29;;;;;;;4.17;2.13;;;3.50;99.90;;;;;;5130706;27;20206;-54
2021/12/20 11:01:23;;;;;;;4.40;1.97;;;3.50;99.90;;;;;;5126977;27;20229;-54
2021/12/20 11:04:00;;;;;;;3.97;1.50;;;3.60;99.90;;;;;;5130728;27;20223;-56
2021/12/20 11:09:18;;;;;;;5.97;2.10;;;3.60;99.90;;;;;;5123921;27;20234;-54
2021/12/20 11:11:49;;;;;;;5.20;1.40;;;3.60;99.90;;;;;;5135335;27;20206;-54
2021/12/20 11:14:21;;;;;;;5.23;2.20;;;3.70;99.90;;;;;;5134927;27;20718;-55
2021/12/20 11:16:51;;;;;;;4.60;1.90;;;3.70;99.90;;;;;;5135592;27;20205;-55
2021/12/20 11:19:28;;;;;;;6.57;2.07;;;3.80;99.90;;;;;;5128372;27;20230;-53
2021/12/20 11:21:59;;;;;;;3.73;1.80;;;3.80;99.90;;;;;;5131872;27;20238;-54
2021/12/20 11:24:31;;;;;;;3.73;1.50;;;3.80;99.90;;;;;;5125972;27;20255;-55
2021/12/20 11:27:01;;;;;;;3.87;1.80;;;3.80;99.90;;;;;;5121697;27;20203;-54
2021/12/20 11:29:32;;;;;;;4.97;2.00;;;3.80;99.90;;;;;;5116684;27;20211;-54
2021/12/20 11:32:01;;;;;;;5.40;1.80;;;3.90;99.90;;;;;;5126119;27;20607;-54
2021/12/20 11:34:30;;;;;;;5.00;2.17;;;3.90;99.90;;;;;;5117015;27;20251;-53
2021/12/20 11:36:58;;;;;;;4.43;2.10;;;3.90;99.90;;;;;;5114298;27;20669;-55
2021/12/20 11:39:27;;;;;;;4.83;2.00;;;3.90;99.90;;;;;;5125750;27;20277;-53
2021/12/20 11:41:55;;;;;;;2.73;1.60;;;3.90;99.90;;;;;;5134216;27;20234;-54
2021/12/20 11:44:27;;;;;;;2.37;1.43;;;4.00;99.90;;;;;;5129791;27;20325;-53
2021/12/20 11:47:16;;;;;;;2.77;1.33;;;4.00;99.90;;;;;;5131163;27;20218;-54
2021/12/20 11:49:44;;;;;;;3.77;1.60;;;4.00;99.90;;;;;;5122498;27;20285;-53
2021/12/20 11:52:17;;;;;;;5.17;1.87;;;4.00;99.90;;;;;;5131202;27;20229;-53
2021/12/20 11:54:48;;;;;;;4.77;2.10;;;4.10;99.90;;;;;;5132122;27;20261;-54
2021/12/20 11:57:41;;;;;;;6.17;1.80;;;4.10;99.90;;;;;;5133724;27;20302;-54
2021/12/20 12:00:28;;;;;;;3.83;1.53;;;4.10;99.90;;;;;;5120478;27;20287;-54
2021/12/20 12:03:01;;;;;;;8.47;1.80;;;4.10;99.90;;;;;;5113399;28;20223;-55
2021/12/20 12:05:35;;;;;;;5.87;2.20;;;4.10;99.90;;;;;;5116685;27;20215;-53
2021/12/20 12:08:26;;;;;;;4.53;1.87;;;4.10;99.90;;;;;;5134139;27;20298;-54
2021/12/20 12:10:56;;;;;;;4.50;2.07;;;4.10;99.90;;;;;;5134534;27;20250;-53
2021/12/20 12:13:27;;;;;;;4.07;1.97;;;4.10;99.90;;;;;;5133937;27;20264;-54
2021/12/20 12:16:01;;;;;;;3.13;1.53;;;4.10;99.90;;;;;;5134611;27;20199;-54
2021/12/20 12:18:49;;;;;;;4.27;1.20;;;4.20;99.90;;;;;;5126377;27;20300;-53
2021/12/20 12:21:40;;;;;;;4.17;1.70;;;4.20;99.90;;;;;;5113637;28;20602;-53
2021/12/20 12:24:44;;;;;;;3.47;1.47;;;4.20;99.90;;;;;;5125498;27;20223;-52
2021/12/20 12:27:21;;;;;;;3.00;1.43;;;4.20;99.90;;;;;;5138733;27;20229;-54
2021/12/20 12:30:27;;;;;;;3.37;1.80;;;4.20;99.90;;;;;;5110691;27;20290;-53
2021/12/20 12:33:32;;;;;;;4.93;1.73;;;4.30;99.90;;;;;;5117023;27;20696;-54
2021/12/20 12:36:31;;;;;;;5.90;1.70;;;4.30;99.90;;;;;;5128161;27;20290;-55
2021/12/20 12:39:01;;;;;;;2.53;1.70;;;4.30;99.90;;;;;;5110576;28;20269;-54
2021/12/20 12:41:33;;;;;;;4.90;1.80;;;4.30;99.90;;;;;;5113127;28;20221;-55
2021/12/20 12:44:18;;;;;;;4.28;1.70;;;4.30;99.90;;;;;;5116611;27;20505;-54
2021/12/20 12:47:07;;;;;;;3.70;1.47;;;4.30;99.90;;;;;;5122335;27;20781;-54
2021/12/20 12:49:38;;;;;;;4.57;1.80;;;4.30;99.90;;;;;;5130448;27;20455;-55
2021/12/20 12:52:29;;;;;;;3.00;1.93;;;4.40;99.90;;;;;;5134412;27;20212;-55
2021/12/20 12:55:12;;;;;;;4.53;1.97;;;4.30;99.90;;;;;;5125608;27;20600;-54
2021/12/20 12:57:41;;;;;;;4.53;1.57;;;4.30;99.90;;;;;;5112916;28;20290;-54
2021/12/20 13:00:16;;;;;;;3.80;1.50;;;4.30;99.90;;;;;;5126713;27;20211;-53
2021/12/20 13:02:48;;;;;;;4.70;1.63;;;4.30;99.90;;;;;;5129542;27;20202;-53
2021/12/20 13:05:19;;;;;;;4.70;1.70;;;4.30;99.90;;;;;;5133282;27;20592;-56
2021/12/20 13:07:51;;;;;;;2.90;1.47;;;4.30;99.90;;;;;;5115432;27;20263;-52
2021/12/20 13:10:27;;;;;;;3.07;1.70;;;4.30;99.90;;;;;;5120386;27;20749;-52
2021/12/20 13:13:01;;;;;;;3.20;1.60;;;4.30;99.90;;;;;;5118983;27;20255;-53
2021/12/20 13:15:35;;;;;;;4.80;1.63;;;4.30;99.90;;;;;;5112730;27;20242;-52
2021/12/20 13:18:10;;;;;;;3.58;1.90;;;4.30;99.90;;;;;;5129846;27;20481;-54
2021/12/20 13:20:46;;;;;;;5.53;3.87;;;4.40;99.90;;;;;;5132212;27;20209;-55